createdAt,value
2023-01-30T00:01:18.521Z,5.50
2023-01-30T00:03:47.198Z,5.60
2023-01-30T00:06:15.589Z,5.60
2023-01-30T00:08:43.729Z,5.00
2023-01-30T00:11:14.899Z,5.00
2023-01-30T00:13:44.405Z,5.90
2023-01-30T00:16:12.765Z,5.80
2023-01-30T00:18:41.429Z,6.20
2023-01-30T00:21:11.412Z,5.80
2023-01-30T00:23:39.579Z,5.80
2023-01-30T00:26:08.086Z,5.60
2023-01-30T00:28:37.035Z,5.90
2023-01-30T00:31:05.975Z,5.20
2023-01-30T00:33:35.778Z,4.70
2023-01-30T00:36:06.652Z,4.90
2023-01-30T00:38:36.309Z,5.50
2023-01-30T00:41:04.687Z,6.30
2023-01-30T00:43:52.300Z,5.90
2023-01-30T00:46:50.096Z,6.30
2023-01-30T00:49:18.418Z,5.90
2023-01-30T00:51:46.613Z,6.00
2023-01-30T00:54:14.907Z,5.40
2023-01-30T00:56:43.327Z,5.30
2023-01-30T00:59:11.684Z,4.90
2023-01-30T01:01:39.891Z,5.00
2023-01-30T01:04:10.531Z,5.00
2023-01-30T01:06:44.243Z,5.00
2023-01-30T01:09:12.941Z,5.10
2023-01-30T01:11:42.095Z,5.00
2023-01-30T01:14:10.567Z,5.10
2023-01-30T01:16:40.612Z,4.90
2023-01-30T01:19:09.245Z,4.50
2023-01-30T01:21:37.435Z,4.50
2023-01-30T01:24:06.799Z,4.30
2023-01-30T01:26:35.523Z,5.10
2023-01-30T01:29:04.361Z,4.50
2023-01-30T01:31:33.316Z,4.70
2023-01-30T01:34:01.539Z,4.90
2023-01-30T01:36:52.052Z,4.20
2023-01-30T01:39:18.240Z,5.00
2023-01-30T01:41:46.454Z,4.30
2023-01-30T01:44:15.508Z,4.70
2023-01-30T01:47:04.012Z,4.20
2023-01-30T01:49:35.932Z,3.40
2023-01-30T01:52:07.053Z,3.90
2023-01-30T01:54:56.215Z,4.20
2023-01-30T01:57:27.091Z,3.60
2023-01-30T02:00:02.211Z,3.60
2023-01-30T02:02:42.777Z,4.00
2023-01-30T02:05:12.947Z,3.80
2023-01-30T02:08:27.185Z,3.70
2023-01-30T02:11:20.189Z,3.40
2023-01-30T02:13:48.857Z,3.80
2023-01-30T02:16:17.568Z,4.10
2023-01-30T02:18:46.287Z,4.00
2023-01-30T02:21:33.016Z,3.90
2023-01-30T02:24:10.571Z,4.20
2023-01-30T02:27:01.699Z,3.90
2023-01-30T02:30:02.691Z,4.30
2023-01-30T02:32:48.214Z,4.10
2023-01-30T02:35:22.919Z,4.10
2023-01-30T02:38:16.438Z,4.00
2023-01-30T02:41:18.506Z,4.50
2023-01-30T02:44:13.591Z,3.80
2023-01-30T02:47:06.857Z,3.60
2023-01-30T02:49:46.198Z,3.70
2023-01-30T02:52:14.782Z,4.40
2023-01-30T02:54:43.760Z,3.90
2023-01-30T02:57:25.333Z,4.70
2023-01-30T02:59:58.242Z,4.30
2023-01-30T03:02:51.069Z,4.30
2023-01-30T03:05:30.140Z,4.00
2023-01-30T03:08:16.029Z,4.40
2023-01-30T03:11:24.620Z,3.80
2023-01-30T03:14:03.469Z,4.00
2023-01-30T03:16:36.881Z,3.70
2023-01-30T03:19:09.368Z,3.10
2023-01-30T03:21:42.783Z,3.40
2023-01-30T03:24:14.112Z,3.70
2023-01-30T03:27:12.209Z,3.30
2023-01-30T03:29:44.543Z,3.60
2023-01-30T03:32:13.025Z,3.40
2023-01-30T03:34:42.003Z,3.30
2023-01-30T03:37:11.606Z,3.30
2023-01-30T03:39:39.977Z,3.80
2023-01-30T03:42:08.331Z,3.50
2023-01-30T03:44:36.585Z,3.20
2023-01-30T03:47:05.142Z,3.90
2023-01-30T04:01:59.716Z,3.20
2023-01-30T04:04:28.404Z,3.10
2023-01-30T04:06:58.222Z,2.90
2023-01-30T04:09:26.815Z,2.80
2023-01-30T04:11:58.256Z,2.90
2023-01-30T04:14:27.867Z,2.70
2023-01-30T04:17:10.183Z,3.20
2023-01-30T04:20:08.848Z,2.90
2023-01-30T04:22:37.834Z,3.10
2023-01-30T04:25:06.250Z,3.30
2023-01-30T04:27:34.960Z,3.10
2023-01-30T04:30:15.513Z,3.10
2023-01-30T04:32:45.011Z,2.80
2023-01-30T04:35:13.393Z,3.10
2023-01-30T04:37:42.283Z,3.30
2023-01-30T04:40:12.013Z,3.20
2023-01-30T04:42:40.472Z,3.20
2023-01-30T04:45:28.727Z,3.10
2023-01-30T04:48:00.102Z,3.50
2023-01-30T04:50:28.751Z,3.30
2023-01-30T04:52:57.031Z,4.00
2023-01-30T04:55:25.323Z,3.50
2023-01-30T04:57:55.348Z,4.00
2023-01-30T05:00:23.622Z,4.00
2023-01-30T05:02:56.709Z,4.00
2023-01-30T05:05:25.882Z,4.20
2023-01-30T05:07:54.839Z,4.00
2023-01-30T05:10:23.288Z,3.80
2023-01-30T05:12:51.679Z,3.90
2023-01-30T05:15:20.143Z,4.50
2023-01-30T05:17:48.642Z,4.80
2023-01-30T05:20:19.677Z,4.50
2023-01-30T05:22:51.085Z,4.40
2023-01-30T05:25:19.818Z,4.10
2023-01-30T05:27:48.303Z,5.30
2023-01-30T05:30:17.558Z,4.90
2023-01-30T05:32:47.217Z,5.10
2023-01-30T05:35:16.051Z,5.40
2023-01-30T05:37:51.178Z,4.90
2023-01-30T05:40:19.804Z,5.40
2023-01-30T05:42:48.009Z,4.90
2023-01-30T05:45:17.249Z,5.50
2023-01-30T05:47:50.414Z,5.80
2023-01-30T05:50:20.018Z,5.20
2023-01-30T05:52:48.210Z,5.80
2023-01-30T05:55:17.122Z,6.10
2023-01-30T05:57:45.674Z,6.10
2023-01-30T06:00:14.867Z,6.90
2023-01-30T06:02:45.259Z,6.80
2023-01-30T06:05:14.630Z,6.60
2023-01-30T06:07:44.268Z,6.30
2023-01-30T06:10:12.798Z,6.30
2023-01-30T06:12:42.617Z,6.10
2023-01-30T06:15:12.228Z,6.00
2023-01-30T06:17:44.602Z,6.60
2023-01-30T06:20:13.082Z,6.80
2023-01-30T06:22:41.644Z,6.90
2023-01-30T06:25:10.976Z,7.10
2023-01-30T06:27:39.554Z,6.60
2023-01-30T06:30:10.218Z,6.30
2023-01-30T06:32:38.984Z,6.30
2023-01-30T06:35:08.240Z,7.50
2023-01-30T06:37:36.460Z,6.90
2023-01-30T06:40:05.577Z,7.10
2023-01-30T06:42:34.653Z,7.50
2023-01-30T06:45:02.808Z,6.60
2023-01-30T06:47:31.406Z,7.10
2023-01-30T06:49:59.696Z,7.20
2023-01-30T06:52:29.785Z,6.90
2023-01-30T06:54:59.020Z,7.30
2023-01-30T06:57:27.297Z,7.20
2023-01-30T06:59:55.730Z,6.90
2023-01-30T07:02:24.367Z,7.10
2023-01-30T07:04:52.756Z,6.30
2023-01-30T07:07:20.933Z,7.10
2023-01-30T07:10:05.802Z,7.10
2023-01-30T07:12:36.388Z,6.70
2023-01-30T07:15:10.792Z,7.00
2023-01-30T07:17:43.430Z,7.00
2023-01-30T07:20:14.681Z,7.00
2023-01-30T07:22:44.555Z,6.40
2023-01-30T07:25:14.316Z,7.20
2023-01-30T07:27:43.095Z,7.00
2023-01-30T07:30:12.328Z,6.50
2023-01-30T07:32:40.574Z,6.80
2023-01-30T07:35:09.393Z,6.50
2023-01-30T07:37:37.768Z,6.50
2023-01-30T07:40:07.088Z,6.00
2023-01-30T07:42:35.357Z,6.70
2023-01-30T07:45:04.114Z,6.60
2023-01-30T07:47:32.297Z,6.30
2023-01-30T07:50:00.633Z,6.30
2023-01-30T07:52:29.063Z,6.50
2023-01-30T07:54:58.535Z,6.10
2023-01-30T07:57:28.418Z,6.70
2023-01-30T07:59:56.662Z,7.10
2023-01-30T08:02:24.946Z,6.40
2023-01-30T08:04:53.374Z,6.50
2023-01-30T08:07:26.012Z,7.20
2023-01-30T08:09:54.195Z,5.60
2023-01-30T08:12:24.397Z,6.20
2023-01-30T08:14:52.512Z,6.20
2023-01-30T08:17:20.651Z,6.00
2023-01-30T08:19:48.910Z,7.00
2023-01-30T08:22:17.184Z,6.30
2023-01-30T08:24:45.381Z,6.00
2023-01-30T08:27:14.288Z,6.00
2023-01-30T08:29:42.468Z,5.50
2023-01-30T08:32:10.759Z,5.30
2023-01-30T08:34:40.141Z,5.80
2023-01-30T08:37:08.461Z,4.90
2023-01-30T08:39:37.346Z,5.60
2023-01-30T08:42:05.788Z,5.70
2023-01-30T08:44:35.307Z,5.40
2023-01-30T08:47:03.523Z,5.90
2023-01-30T08:49:32.382Z,5.30
2023-01-30T08:52:00.656Z,5.80
2023-01-30T08:54:28.923Z,5.90
2023-01-30T08:56:57.162Z,5.90
2023-01-30T08:59:25.253Z,6.00
2023-01-30T09:01:53.451Z,6.00
2023-01-30T09:04:23.417Z,5.30
2023-01-30T09:06:51.651Z,5.00
2023-01-30T09:09:20.043Z,5.30
2023-01-30T09:11:48.620Z,5.50
2023-01-30T09:14:20.276Z,5.00
2023-01-30T09:16:56.092Z,5.40
2023-01-30T09:19:25.742Z,4.80
2023-01-30T09:21:54.266Z,5.30
2023-01-30T09:24:27.002Z,4.90
2023-01-30T09:26:57.802Z,5.30
2023-01-30T09:29:26.742Z,5.40
2023-01-30T09:31:59.136Z,5.00
2023-01-30T09:34:29.054Z,5.20
2023-01-30T09:37:00.412Z,4.90
2023-01-30T09:39:29.179Z,4.80
2023-01-30T09:42:23.976Z,5.00
2023-01-30T09:45:10.891Z,4.90
2023-01-30T09:47:47.933Z,5.60
2023-01-30T09:50:42.780Z,6.00
2023-01-30T09:53:36.456Z,6.10
2023-01-30T09:56:05.040Z,5.90
2023-01-30T09:59:07.619Z,5.80
2023-01-30T10:02:07.134Z,5.60
2023-01-30T10:04:48.821Z,6.00
2023-01-30T10:07:57.537Z,6.60
2023-01-30T10:11:00.989Z,6.10
2023-01-30T10:13:58.422Z,5.30
2023-01-30T10:16:45.337Z,5.90
2023-01-30T10:19:16.060Z,6.20
2023-01-30T10:21:51.835Z,6.90
2023-01-30T10:24:58.306Z,6.70
2023-01-30T10:27:26.589Z,7.50
2023-01-30T10:29:58.608Z,7.50
2023-01-30T10:35:14.154Z,6.70
2023-01-30T10:38:03.231Z,6.60
2023-01-30T10:40:41.558Z,7.70
2023-01-30T10:43:25.236Z,6.10
2023-01-30T10:45:59.498Z,7.10
2023-01-30T10:48:45.801Z,6.70
2023-01-30T10:51:39.364Z,7.30
2023-01-30T10:54:12.252Z,6.80
2023-01-30T10:56:52.202Z,5.60
2023-01-30T11:00:22.023Z,6.30
2023-01-30T11:03:08.748Z,6.20
2023-01-30T11:05:48.073Z,6.30
2023-01-30T11:08:42.465Z,5.60
2023-01-30T11:11:31.413Z,5.40
2023-01-30T11:14:09.155Z,5.10
2023-01-30T11:16:56.867Z,6.50
2023-01-30T11:19:34.397Z,5.50
2023-01-30T11:22:04.741Z,5.90
2023-01-30T11:24:40.234Z,5.60
2023-01-30T11:27:28.586Z,6.10
2023-01-30T11:30:12.659Z,5.60
2023-01-30T11:32:44.069Z,5.30
2023-01-30T11:35:25.914Z,5.50
2023-01-30T11:37:54.936Z,5.60
2023-01-30T11:40:25.651Z,5.90
2023-01-30T11:43:02.036Z,5.80
2023-01-30T11:45:39.693Z,6.60
2023-01-30T11:48:33.224Z,6.30
2023-01-30T11:51:06.320Z,5.70
2023-01-30T12:06:11.637Z,6.30
2023-01-30T12:08:42.164Z,6.80
2023-01-30T12:11:42.257Z,5.80
2023-01-30T12:14:11.888Z,5.10
2023-01-30T12:17:08.060Z,6.00
2023-01-30T12:19:44.191Z,6.50
2023-01-30T12:22:18.964Z,6.30
2023-01-30T12:24:58.675Z,6.60
2023-01-30T12:27:53.675Z,6.20
2023-01-30T12:30:41.706Z,5.60
2023-01-30T12:33:11.600Z,6.50
2023-01-30T12:35:59.969Z,6.10
2023-01-30T12:38:59.499Z,5.90
2023-01-30T12:41:39.447Z,6.50
2023-01-30T12:44:19.244Z,6.30
2023-01-30T12:47:12.610Z,6.00
2023-01-30T12:49:42.803Z,5.90
2023-01-30T12:52:31.360Z,5.80
2023-01-30T12:55:18.416Z,5.60
2023-01-30T12:57:56.887Z,5.60
2023-01-30T13:00:42.327Z,5.60
2023-01-30T13:03:15.693Z,5.10
2023-01-30T13:05:46.124Z,5.80
2023-01-30T13:08:45.731Z,5.50
2023-01-30T13:11:15.582Z,5.30
2023-01-30T13:14:00.435Z,5.90
2023-01-30T13:17:08.272Z,5.70
2023-01-30T13:20:08.007Z,5.90
2023-01-30T13:22:35.326Z,6.10
2023-01-30T13:25:28.029Z,6.40
2023-01-30T13:30:24.745Z,6.10
2023-01-30T13:32:56.193Z,5.90
2023-01-30T13:35:26.598Z,6.20
2023-01-30T13:37:53.991Z,5.80
2023-01-30T13:40:25.684Z,5.90
2023-01-30T13:45:27.884Z,5.60
2023-01-30T13:48:23.326Z,5.40
2023-01-30T13:51:14.538Z,5.80
2023-01-30T13:53:49.187Z,6.10
2023-01-30T13:56:42.546Z,6.50
2023-01-30T13:59:30.272Z,5.60
2023-01-30T14:02:03.196Z,6.30
2023-01-30T14:04:39.672Z,6.00
2023-01-30T14:07:12.445Z,5.90
2023-01-30T14:09:50.445Z,6.20
2023-01-30T14:12:19.176Z,6.30
2023-01-30T14:15:11.999Z,6.50
2023-01-30T14:17:39.588Z,6.40
2023-01-30T14:20:17.687Z,6.40
2023-01-30T14:22:50.838Z,6.40
2023-01-30T14:25:29.887Z,7.20
2023-01-30T14:27:59.994Z,6.70
2023-01-30T14:30:49.131Z,6.10
2023-01-30T14:33:19.114Z,7.30
2023-01-30T14:35:49.365Z,6.90
2023-01-30T14:38:19.532Z,7.30
2023-01-30T14:41:01.851Z,6.20
2023-01-30T14:46:02.739Z,6.80
2023-01-30T14:48:56.179Z,7.40
2023-01-30T14:51:39.246Z,6.50
2023-01-30T14:54:27.458Z,6.10
2023-01-30T14:57:02.292Z,7.30
2023-01-30T14:59:34.922Z,7.20
2023-01-30T15:02:02.202Z,7.40
2023-01-30T15:04:53.521Z,7.80
2023-01-30T15:07:45.983Z,8.00
2023-01-30T15:12:51.284Z,7.50
2023-01-30T15:15:30.531Z,8.20
2023-01-30T15:18:19.525Z,8.00
2023-01-30T15:21:04.788Z,7.20
2023-01-30T15:23:55.105Z,6.70
2023-01-30T15:26:43.431Z,7.20
2023-01-30T15:29:48.697Z,6.80
2023-01-30T15:32:20.467Z,6.60
2023-01-30T15:34:50.146Z,6.80
2023-01-30T15:37:31.058Z,6.70
2023-01-30T15:40:21.820Z,6.40
2023-01-30T15:43:04.016Z,6.20
2023-01-30T15:45:50.646Z,6.70
2023-01-30T15:49:15.954Z,6.60
2023-01-30T15:51:43.092Z,7.20
2023-01-30T15:54:16.613Z,6.60
2023-01-30T15:56:44.493Z,6.80
2023-01-30T15:59:21.717Z,6.50
2023-01-30T16:02:01.648Z,6.00
2023-01-30T16:04:29.446Z,6.40
2023-01-30T16:06:56.246Z,6.60
2023-01-30T16:09:23.953Z,6.30
2023-01-30T16:11:50.925Z,6.00
2023-01-30T16:14:19.131Z,6.90
2023-01-30T16:16:58.223Z,6.60
2023-01-30T16:19:36.985Z,6.50
2023-01-30T16:22:05.607Z,6.50
2023-01-30T16:24:33.833Z,6.70
2023-01-30T16:27:06.090Z,6.90
2023-01-30T16:29:35.688Z,6.90
2023-01-30T16:32:11.262Z,7.00
2023-01-30T16:34:39.497Z,6.80
2023-01-30T16:37:16.316Z,6.80
2023-01-30T16:39:45.911Z,6.40
2023-01-30T16:42:18.781Z,7.50
2023-01-30T16:44:45.653Z,6.90
2023-01-30T16:47:26.612Z,7.20
2023-01-30T16:49:54.373Z,6.50
2023-01-30T16:52:44.649Z,6.80
2023-01-30T16:55:22.857Z,6.70
2023-01-30T16:57:58.059Z,5.50
2023-01-30T17:00:26.207Z,6.10
2023-01-30T17:02:55.318Z,6.10
2023-01-30T17:05:26.827Z,6.30
2023-01-30T17:07:55.321Z,5.80
2023-01-30T17:10:28.239Z,6.60
2023-01-30T17:12:55.798Z,5.90
2023-01-30T17:15:26.572Z,6.00
2023-01-30T17:17:55.446Z,6.50
2023-01-30T17:20:22.295Z,7.20
2023-01-30T17:22:51.933Z,5.90
2023-01-30T17:25:37.701Z,7.50
2023-01-30T17:28:07.829Z,8.30
2023-01-30T17:30:35.393Z,7.30
2023-01-30T17:33:02.281Z,7.00
2023-01-30T17:35:29.781Z,8.20
2023-01-30T17:38:05.219Z,8.00
2023-01-30T17:40:35.255Z,7.90
2023-01-30T17:43:02.283Z,8.00
2023-01-30T17:45:29.700Z,8.20
2023-01-30T17:47:56.663Z,8.00
2023-01-30T17:50:23.702Z,8.10
2023-01-30T17:52:50.796Z,8.30
2023-01-30T17:55:19.502Z,8.80
2023-01-30T17:57:52.702Z,8.30
2023-01-30T18:00:21.089Z,8.00
2023-01-30T18:02:49.013Z,9.20
2023-01-30T18:05:21.701Z,8.50
2023-01-30T18:07:49.414Z,8.60
2023-01-30T18:10:19.149Z,8.60
2023-01-30T18:12:48.029Z,8.70
2023-01-30T18:15:15.889Z,8.90
2023-01-30T18:17:48.130Z,8.70
2023-01-30T18:20:19.710Z,8.50
2023-01-30T18:22:53.344Z,8.10
2023-01-30T18:25:27.489Z,8.10
2023-01-30T18:27:54.791Z,8.70
2023-01-30T18:30:24.620Z,7.90
2023-01-30T18:32:53.288Z,8.00
2023-01-30T18:35:22.438Z,8.40
2023-01-30T18:37:49.877Z,8.30
2023-01-30T18:40:18.231Z,7.60
2023-01-30T18:42:46.401Z,7.90
2023-01-30T18:45:13.333Z,7.60
2023-01-30T18:47:41.996Z,9.00
2023-01-30T18:50:10.074Z,8.20
2023-01-30T18:52:37.110Z,8.80
2023-01-30T18:55:04.417Z,8.20
2023-01-30T18:57:31.951Z,8.60
2023-01-30T18:59:58.874Z,8.30
2023-01-30T19:02:26.393Z,8.50
2023-01-30T19:04:53.193Z,8.00
2023-01-30T19:07:20.348Z,8.60
2023-01-30T19:09:47.256Z,7.20
2023-01-30T19:12:32.730Z,8.50
2023-01-30T19:15:01.034Z,8.10
2023-01-30T19:17:28.909Z,7.10
2023-01-30T19:19:56.934Z,7.60
2023-01-30T19:22:24.027Z,8.30
2023-01-30T19:24:51.288Z,8.00
2023-01-30T19:27:18.341Z,8.50
2023-01-30T19:29:45.322Z,7.00
2023-01-30T19:32:12.383Z,8.00
2023-01-30T19:34:40.539Z,7.60
2023-01-30T19:37:07.803Z,7.70
2023-01-30T19:39:35.245Z,7.60
2023-01-30T19:42:02.319Z,8.20
2023-01-30T19:44:29.346Z,7.90
2023-01-30T20:00:41.441Z,7.90
2023-01-30T20:03:13.081Z,8.80
2023-01-30T20:08:21.828Z,9.60
2023-01-30T20:11:04.278Z,9.00
2023-01-30T20:13:36.775Z,8.90
2023-01-30T20:16:10.523Z,9.70
2023-01-30T20:18:38.984Z,9.70
2023-01-30T20:21:11.480Z,10.60
2023-01-30T20:23:44.859Z,9.30
2023-01-30T20:26:15.009Z,10.30
2023-01-30T20:28:43.574Z,10.50
2023-01-30T20:31:20.488Z,10.90
2023-01-30T20:33:49.276Z,10.60
2023-01-30T20:36:19.013Z,10.40
2023-01-30T20:38:49.629Z,11.70
2023-01-30T20:41:20.157Z,11.40
2023-01-30T20:43:51.262Z,11.20
2023-01-30T20:46:22.701Z,11.50
2023-01-30T20:48:54.448Z,11.00
2023-01-30T20:51:30.768Z,12.40
2023-01-30T20:54:00.629Z,12.00
2023-01-30T20:56:36.488Z,12.50
2023-01-30T20:59:06.168Z,13.00
2023-01-30T21:01:35.372Z,12.00
2023-01-30T21:04:08.382Z,12.30
2023-01-30T21:06:44.078Z,13.20
2023-01-30T21:09:16.299Z,12.30
2023-01-30T21:11:46.062Z,14.10
2023-01-30T21:14:16.060Z,14.00
2023-01-30T21:16:44.746Z,14.30
2023-01-30T21:19:16.237Z,14.70
2023-01-30T21:21:53.624Z,14.50
2023-01-30T21:24:27.515Z,14.00
2023-01-30T21:26:55.961Z,13.90
2023-01-30T21:29:26.459Z,13.20
2023-01-30T21:31:55.797Z,15.60
2023-01-30T21:34:24.225Z,14.50
2023-01-30T21:37:15.382Z,15.40
2023-01-30T21:40:02.392Z,15.70
2023-01-30T21:42:49.816Z,15.50
2023-01-30T21:45:21.200Z,15.20
2023-01-30T21:47:51.588Z,15.40
2023-01-30T21:50:20.617Z,16.30
2023-01-30T21:52:49.021Z,16.10
2023-01-30T21:55:18.034Z,16.50
2023-01-30T21:57:46.505Z,15.50
2023-01-30T22:00:15.076Z,16.80
2023-01-30T22:02:44.452Z,17.20
2023-01-30T22:05:12.709Z,16.70
2023-01-30T22:07:42.495Z,16.70
2023-01-30T22:10:11.325Z,15.90
2023-01-30T22:12:41.992Z,17.00
2023-01-30T22:15:10.725Z,15.90
2023-01-30T22:17:39.959Z,16.30
2023-01-30T22:20:10.262Z,16.50
2023-01-30T22:22:38.682Z,15.90
2023-01-30T22:25:11.842Z,14.50
2023-01-30T22:27:40.238Z,16.00
2023-01-30T22:30:09.745Z,16.30
2023-01-30T22:35:08.876Z,14.40
2023-01-30T22:37:37.330Z,15.50
2023-01-30T22:40:06.422Z,15.90
2023-01-30T22:42:35.277Z,15.90
2023-01-30T22:45:04.300Z,16.40
2023-01-30T22:47:32.594Z,15.60
2023-01-30T22:50:01.201Z,16.40
2023-01-30T22:52:30.035Z,15.80
2023-01-30T22:54:58.195Z,15.00
2023-01-30T22:57:26.790Z,15.70
2023-01-30T22:59:55.229Z,15.80
2023-01-30T23:02:23.698Z,14.80
2023-01-30T23:04:52.180Z,15.20
2023-01-30T23:07:22.337Z,16.00
2023-01-30T23:09:50.924Z,15.80
2023-01-30T23:12:37.946Z,15.40
2023-01-30T23:15:07.005Z,16.50
2023-01-30T23:18:10.755Z,15.60
2023-01-30T23:20:39.142Z,15.50
2023-01-30T23:23:07.423Z,15.20
2023-01-30T23:25:40.348Z,17.00
2023-01-30T23:28:09.132Z,16.20
2023-01-30T23:30:40.619Z,15.90
2023-01-30T23:33:09.805Z,14.40
2023-01-30T23:35:38.025Z,16.10
2023-01-30T23:38:22.268Z,15.10
2023-01-30T23:40:50.959Z,14.50
2023-01-30T23:43:19.503Z,14.70
2023-01-30T23:45:47.763Z,15.50
2023-01-30T23:48:16.428Z,14.80
2023-01-30T23:50:44.918Z,16.00
2023-01-30T23:53:13.166Z,15.90
2023-01-30T23:55:50.953Z,16.00
2023-01-30T23:58:19.352Z,14.50
